Flight Track Log - Related Links

Times and Time Zones

All times are in EDT time to prevent confusion due to time zone crossing. See the N876MA flight status page for this flight to view local times or setup timezone preferences in your user account.

Time Position Orientation Groundspeed Altitude Reporting Facility
EDT Latitude Longitude Course Direction KTS MPH feet Rate Location/Type
Fri 05:13:30 PM 41.1883 -75.7889 201° Southwest 256 295 7,800  Level New York Center
Fri 05:14:30 PM 41.1203 -75.7728 170° South 274 315 9,000 1,850 Climbing New York Center
Fri 05:15:30 PM 41.0458 -75.8114 201° Southwest 266 306 11,500 1,500 Climbing New York Center
Fri 05:16:30 PM 40.9669 -75.8522 201° Southwest 290 334 12,000 250 Climbing New York Center
Fri 05:17:00 PM 40.9192 -75.8708 201° Southwest  Level Estimated
Fri 05:17:30 PM 40.8817 -75.8953 201° Southwest 319 367 12,000  Level New York Center
Fri 05:18:30 PM 40.8069 -75.9361 202° Southwest 326 375 12,000  Level New York Center
Fri 05:19:30 PM 40.7089 -75.9864 201° Southwest 331 381 12,000  Level New York Center
Fri 05:20:30 PM 40.6322 -76.0269 202° Southwest 336 387 12,000  Level New York Center
Fri 05:21:30 PM 40.5467 -76.0722 202° Southwest 336 387 12,000  Level New York Center
Fri 05:22:30 PM 40.4567 -76.1281 205° Southwest 336 387 12,000  Level New York Center
Fri 05:23:30 PM 40.3844 -76.2042 219° Southwest 336 387 12,000  Level New York Center
Fri 05:24:30 PM 40.3097 -76.2447 202° Southwest 336 387 12,000 -50 Level New York Center
Fri 05:25:30 PM 40.2153 -76.2564 185° South 333 383 11,900 -550 Descending New York Center
Fri 05:26:30 PM 40.1122 -76.2725 187° South 345 397 10,900 -713 Descending New York Center
Fri 05:28:10 PM 39.9500 -76.3000 187° South 341 392 10,000 -338 Descending Potomac TRACON
Fri 05:29:10 PM 39.8500 -76.3167 187° South 328 377 10,000  Level Potomac TRACON
Fri 05:30:16 PM 39.7667 -76.3333 189° South 321 369 10,000 -476 Level Potomac TRACON
Fri 05:31:16 PM 39.6833 -76.3667 197° South 263 303 9,000 -1,587 Descending Potomac TRACON
Fri 05:32:17 PM 39.6333 -76.4167 218° Southwest 264 304 6,800 -2,348 Descending Potomac TRACON
Fri 05:33:11 PM 39.5667 -76.4500 201° Southwest 271 312 4,500 -1,737 Descending Potomac TRACON
Fri 05:34:11 PM 39.4833 -76.4500 180° South 247 284 3,500 -992 Descending Potomac TRACON
Fri 05:35:12 PM 39.4333 -76.4333 166° South 233 268 2,500 -898 Descending Potomac TRACON
Fri 05:36:18 PM 39.3667 -76.4333 180° South 204 235 1,600 -476 Descending Potomac TRACON
Fri 05:37:18 PM 39.3167 -76.4333 180° South 173 199 1,500 -53 Descending Potomac TRACON
Fri 05:38:12 PM 39.2667 -76.4167 166° South 177 204 1,500 -250 Level Potomac TRACON
Fri 05:39:18 PM 39.2833 -76.3667 67° East 157 181 1,000 -619 Descending Potomac TRACON
Fri 05:40:18 PM 39.3167 -76.4000 322° Northwest 128 147 200 -800 Descending Potomac TRACON

Login

Don't have an account? Register now (free) for customized features, flight alerts, and more!